Terminal Aerodrome Forecast
Issued by NWS Sterling, VA

Home | Current Version | Previous Version | Text Only | Print | Product List | Glossary On
Versions: 1 2 3 4 5 6 7 8 9 10 11 12 13 14 15 16 17 18 19 20 21 22 23 24 25 26 27 28 29 30 31 32
000
FTUS41 KLWX 252057 AAA
TAFBWI
TAF AMD
KBWI 252057Z 2521/2624 34008KT P6SM SCT040 BKN060
     FM260200 35007KT P6SM SCT040
     FM260800 05005KT P6SM SCT250
     FM261500 09005KT P6SM BKN035
     FM262000 13006KT P6SM SCT035=

USA.gov is the U.S. government's official web portal to all federal, state and local government web resources and services.